Latest Weather Observations for Gunnedah Airport

IDN60801

Issued at 9:04 am EDT Thursday 29 January 2015 (issued every 30 minutes, with the page automatically refreshed every 10 minutes)

About weather observations | Map of weather stations | Latest weather observations for NSW | Other Formats
Station Details ID: 055202 Name: GUNNEDAH AIRPORT AWS Lat: -30.95 Lon: 150.25 Height: 262.57 m
Data from the previous 72 hours. | See also: Recent months at Gunnedah Airport
Date/Time
EDT
Temp
°C
App
Temp
°C
Dew
Point
Rel
Hum
%
Delta-T
°C
Wind Press
QNH
hPa
Press
MSL
hPa
Rain
since 9 am
mm
Dir
 
Spd
km/h
Gust
km/h
Spd
kts
Gust
kts
29/09:00am 19.5 15.8 12.7 65 3.9 SE 24 33 13 18 1012.6 1011.0 0.0
29/08:30am 17.9 13.3 11.2 65 3.7 SE 26 35 14 19 1012.7 1011.1 0.0
29/08:00am 17.2 14.2 11.9 71 2.9 SSE 19 26 10 14 1012.6 1011.0 0.0
29/07:30am 15.6 13.1 12.2 80 1.9 SE 17 22 9 12 1012.3 1010.7 0.0
29/07:00am 13.7 11.8 11.7 88 1.1 SE 13 15 7 8 1012.0 1010.4 0.0
29/06:30am 12.5 10.6 10.6 88 1.0 E 11 15 6 8 1011.6 1010.0 0.0
29/06:00am 13.8 11.7 11.1 84 1.4 SE 13 17 7 9 1011.3 1009.7 0.0
29/05:30am 14.0 12.0 11.5 85 1.4 SE 13 20 7 11 1011.1 1009.5 0.0
29/05:00am 14.1 12.0 11.3 83 1.5 SE 13 20 7 11 1011.0 1009.4 0.0
29/04:30am 14.8 12.9 11.8 82 1.6 SE 13 19 7 10 1010.8 1009.2 0.0
29/04:00am 14.4 13.0 11.0 80 1.8 ESE 9 13 5 7 1010.8 1009.2 0.0
29/03:30am 15.8 13.1 11.6 76 2.3 SSE 17 22 9 12 1010.9 1009.3 0.0
29/03:00am 15.9 12.9 11.9 77 2.2 SSE 19 24 10 13 1010.9 1009.3 0.0
29/02:30am 15.0 12.7 11.8 81 1.8 SE 15 19 8 10 1011.2 1009.6 0.0
29/02:00am 15.5 12.9 12.1 80 1.9 SE 17 24 9 13 1011.4 1009.8 0.0
29/01:30am 15.6 12.6 11.8 78 2.1 SE 19 24 10 13 1011.5 1009.9 0.0
29/01:00am 16.3 12.7 11.9 75 2.4 SSE 22 30 12 16 1011.6 1010.0 0.0
29/12:30am 17.1 12.7 11.8 71 2.9 SSE 26 33 14 18 1011.9 1010.3 0.0
29/12:00am 16.8 12.8 11.7 72 2.8 SSE 24 33 13 18 1012.0 1010.4 0.0
 
Date/Time
EDT
Temp
°C
App
Temp
°C
Dew
Point
Rel
Hum
%
Delta-T
°C
Wind Press
QNH
hPa
Press
MSL
hPa
Rain
since 9 am
mm
Dir
 
Spd
km/h
Gust
km/h
Spd
kts
Gust
kts
28/11:30pm 17.2 14.2 12.1 72 2.8 SSE 19 24 10 13 1012.0 1010.4 0.0
28/11:00pm 17.4 14.1 11.7 69 3.2 SE 20 26 11 14 1011.9 1010.3 0.0
28/10:30pm 17.7 14.3 11.3 66 3.5 SSE 20 26 11 14 1011.8 1010.2 0.0
28/10:00pm 18.3 14.4 10.9 62 4.1 SE 22 28 12 15 1011.8 1010.2 0.0
28/09:30pm 18.6 14.9 11.4 63 4.0 SE 22 28 12 15 1011.6 1010.0 0.0
28/09:00pm 18.9 14.9 11.7 63 4.0 SSE 24 32 13 17 1011.2 1009.6 0.0
28/08:30pm 19.0 15.0 11.8 63 4.0 SE 24 37 13 20 1011.1 1009.5 0.0
28/08:00pm 19.6 15.1 11.4 59 4.6 SSE 26 37 14 20 1011.1 1009.5 0.0
28/07:30pm 20.1 15.3 11.6 58 4.8 SSE 28 35 15 19 1010.9 1009.3 0.0
28/07:00pm 21.1 17.3 12.5 58 4.9 SE 24 33 13 18 1010.3 1008.7 0.0
28/06:30pm 21.4 16.8 12.3 56 5.2 SE 28 37 15 20 1010.0 1008.5 0.0
28/06:00pm 21.7 17.4 13.3 59 4.9 SE 28 41 15 22 1009.9 1008.3 0.0
28/05:30pm 21.5 16.5 13.4 60 4.7 SE 32 43 17 23 1009.9 1008.3 0.0
28/05:00pm 20.6 15.7 13.6 64 4.1 SE 32 41 17 22 1009.9 1008.3 0.0
28/04:53pm 20.6 15.3 13.1 62 4.3 SE 33 52 18 28 1009.9 1008.3 0.0
28/04:30pm 22.1 15.6 14.0 60 4.8 SE 41 52 22 28 1009.7 1008.1 0.0
28/04:00pm 22.9 17.2 14.2 58 5.2 SSE 37 50 20 27 1009.4 1007.8 0.0
28/03:30pm 23.1 18.0 14.9 60 4.9 SSE 35 43 19 23 1009.4 1007.8 0.0
28/03:00pm 23.3 18.9 15.6 62 4.7 SSE 33 43 18 23 1009.5 1007.9 0.0
28/02:30pm 22.4 17.9 15.3 64 4.3 SSE 33 44 18 24 1009.8 1008.2 0.0
28/02:00pm 22.2 17.0 15.5 66 4.1 SSE 37 44 20 24 1009.9 1008.3 0.0
28/01:30pm 23.5 19.0 16.5 65 4.3 SSE 35 46 19 25 1010.0 1008.5 0.0
28/01:00pm 23.6 19.2 15.6 61 4.9 SSE 33 46 18 25 1010.1 1008.6 0.0
28/12:30pm 22.9 18.6 14.5 59 5.0 SSE 30 43 16 23 1010.3 1008.7 0.0
28/12:00pm 23.3 19.6 15.1 60 5.0 SE 28 35 15 19 1010.4 1008.8 0.0
28/11:30am 23.3 19.8 14.6 58 5.2 SSE 26 35 14 19 1010.4 1008.8 0.0
28/11:00am 22.4 19.4 14.8 62 4.6 SE 24 32 13 17 1010.5 1008.9 0.0
28/10:30am 21.5 18.2 15.1 67 3.8 SSE 26 32 14 17 1010.4 1008.8 0.0
28/10:00am 21.1 17.3 14.7 67 3.8 SE 28 35 15 19 1010.1 1008.6 0.0
28/09:30am 20.9 18.3 15.0 69 3.5 SSE 22 30 12 16 1010.1 1008.6 0.0
28/09:00am 20.1 17.9 14.5 70 3.3 SE 19 26 10 14 1010.1 1008.6 11.2
28/08:30am 19.5 17.4 14.7 74 2.8 SSE 19 28 10 15 1009.8 1008.2 11.2
28/08:00am 18.8 16.9 14.1 74 2.7 SE 17 22 9 12 1009.5 1007.9 11.2
28/07:30am 18.2 15.8 13.9 76 2.5 SE 19 24 10 13 1009.1 1007.5 11.2
28/07:00am 17.6 15.2 13.7 78 2.2 SE 19 24 10 13 1008.6 1007.0 11.2
28/06:30am 16.6 14.5 13.5 82 1.8 SE 17 20 9 11 1008.4 1006.8 11.2
28/06:00am 16.5 14.0 13.6 83 1.7 SE 19 22 10 12 1008.0 1006.4 11.2
28/05:30am 16.8 14.8 13.9 83 1.7 SE 17 22 9 12 1007.8 1006.2 11.2
28/05:00am 16.7 14.3 13.8 83 1.7 SE 19 22 10 12 1007.4 1005.8 11.2
28/04:30am 16.7 14.7 13.8 83 1.7 SE 17 20 9 11 1007.5 1005.9 11.2
28/04:00am 16.9 14.6 14.0 83 1.7 SE 19 26 10 14 1007.3 1005.7 11.2
28/03:30am 17.0 14.7 14.1 83 1.7 SE 19 24 10 13 1007.2 1005.6 11.2
28/03:00am 17.2 14.5 14.5 84 1.6 SE 22 26 12 14 1007.2 1005.6 11.2
28/02:30am 17.3 15.0 14.6 84 1.6 SE 20 26 11 14 1007.5 1005.9 11.2
28/02:00am 17.1 15.4 14.6 85 1.5 SE 17 24 9 13 1007.8 1006.2 11.2
28/01:30am 17.5 15.5 15.0 85 1.5 SSE 19 26 10 14 1007.9 1006.3 11.2
28/01:00am 17.4 15.4 14.9 85 1.5 SE 19 24 10 13 1007.9 1006.3 11.2
28/12:30am 17.8 15.9 15.1 84 1.6 SSE 19 24 10 13 1008.0 1006.4 11.2
28/12:00am 17.9 15.8 15.2 84 1.6 SE 20 28 11 15 1008.2 1006.6 11.2
 
Date/Time
EDT
Temp
°C
App
Temp
°C
Dew
Point
Rel
Hum
%
Delta-T
°C
Wind Press
QNH
hPa
Press
MSL
hPa
Rain
since 9 am
mm
Dir
 
Spd
km/h
Gust
km/h
Spd
kts
Gust
kts
27/11:30pm 18.5 16.3 14.8 79 2.2 SE 20 26 11 14 1008.2 1006.6 11.2
27/11:00pm 19.4 16.9 15.1 76 2.6 SE 22 35 12 19 1008.3 1006.7 11.2
27/10:30pm 18.9 16.7 15.0 78 2.3 SE 20 28 11 15 1008.1 1006.5 11.2
27/10:00pm 18.8 18.0 15.1 79 2.2 SSE 13 17 7 9 1008.1 1006.5 11.2
27/09:35pm 19.4 14.9 15.3 77 2.4 E 33 52 18 28 1007.4 1005.8 11.2
27/09:30pm 19.3 13.6 15.2 77 2.4 E 39 52 21 28 1007.2 1005.6 11.2
27/09:00pm 19.2 13.6 15.5 79 2.2 ENE 39 57 21 31 1007.0 1005.4 11.2
27/08:34pm 19.1 14.1 16.0 82 1.9 E 37 56 20 30 1007.1 1005.5 11.2
27/08:30pm 19.1 14.5 16.1 83 1.8 E 35 48 19 26 1007.2 1005.6 11.2
27/08:00pm 18.4 15.8 16.9 91 0.9 E 26 35 14 19 1007.9 1006.3 11.2
27/07:30pm 18.4 16.5 16.7 90 1.0 ESE 22 30 12 16 1008.9 1007.3 11.0
27/07:00pm 18.6 17.6 16.6 88 1.2 SSE 17 26 9 14 1010.0 1008.5 11.0
27/06:30pm 18.7 17.4 16.8 89 1.2 S 19 28 10 15 1010.4 1008.8 11.0
27/06:00pm 18.6 17.2 16.9 90 1.0 S 20 28 11 15 1010.4 1008.8 10.2
27/05:30pm 18.5 16.1 16.5 88 1.2 SSE 24 30 13 16 1009.9 1008.3 7.8
27/05:00pm 18.6 15.5 16.6 88 1.2 SE 28 37 15 20 1008.6 1007.0 4.6
27/04:30pm 19.1 13.6 16.7 86 1.5 SSE 41 65 22 35 1007.7 1006.1 2.2
27/04:03pm 19.2 13.2 16.8 86 1.5 SSE 44 63 24 34 1006.0 1004.4 1.2
27/04:00pm 19.4 13.7 17.2 87 1.4 SSE 43 56 23 30 1006.3 1004.6 1.0
27/03:30pm 20.8 15.3 17.6 82 2.0 SSE 43 63 23 34 1006.4 1004.7 0.0
27/03:00pm 22.5 14.8 15.6 65 4.2 S 50 72 27 39 1006.0 1004.4 0.0
27/02:43pm 23.6 17.4 17.3 67 3.9 S 46 69 25 37 1005.7 1004.1 0.0
27/02:30pm 23.5 18.1 17.0 67 4.0 S 41 57 22 31 1006.1 1004.5 0.0
27/02:21pm 23.8 19.3 17.3 67 4.1 S 37 56 20 30 1006.0 1004.4 0.0
27/02:00pm 23.7 18.3 17.0 66 4.2 S 41 57 22 31 1006.3 1004.6 0.0
27/01:47pm 25.8 23.9 15.2 52 6.5 SE 19 57 10 31 1006.3 1004.6 0.0
27/01:30pm 30.7 30.0 15.5 39 9.5 ESE 13 26 7 14 1006.3 1004.6 0.0
27/01:00pm 29.5 30.2 16.0 44 8.5 N 7 15 4 8 1007.0 1005.4 0.0
27/12:30pm 29.4 28.9 15.9 44 8.4 E 13 20 7 11 1007.5 1005.9 0.0
27/12:00pm 29.0 28.0 16.5 46 7.9 SE 17 28 9 15 1008.1 1006.5 0.0
27/11:30am 28.9 28.2 17.4 49 7.3 SSE 17 24 9 13 1008.5 1006.9 0.0
27/11:00am 27.4 27.4 17.3 54 6.4 ESE 13 22 7 12 1008.8 1007.2 0.0
27/10:30am 26.7 25.7 16.6 54 6.3 SE 17 24 9 13 1009.0 1007.4 0.0
27/10:00am 26.4 25.5 16.9 56 6.0 SE 17 22 9 12 1009.1 1007.5 0.0
27/09:30am 25.3 24.3 17.5 62 4.9 SE 19 24 10 13 1009.4 1007.8 0.0
27/09:00am 24.0 22.7 17.3 66 4.2 SE 20 26 11 14 1009.5 1007.9 0.0
27/08:30am 23.1 21.7 16.9 68 3.8 SE 20 26 11 14 1009.5 1007.9 0.0
27/08:00am 21.9 20.3 16.4 71 3.4 SE 20 28 11 15 1009.5 1007.9 0.0
27/07:30am 21.1 19.6 16.7 76 2.7 SE 20 26 11 14 1009.3 1007.7 0.0
27/07:00am 20.1 19.0 16.3 79 2.3 SE 17 24 9 13 1009.1 1007.5 0.0
27/06:30am 19.8 18.6 16.1 79 2.2 SE 17 24 9 13 1008.9 1007.3 0.0
27/06:00am 19.6 17.8 16.1 80 2.1 SSE 20 28 11 15 1008.2 1006.6 0.0
27/05:30am 19.6 18.5 16.3 81 2.0 SE 17 22 9 12 1008.2 1006.6 0.0
27/05:00am 19.4 18.2 16.1 81 2.0 SE 17 22 9 12 1008.1 1006.5 0.0
27/04:30am 19.5 18.3 16.2 81 2.0 SE 17 22 9 12 1007.9 1006.3 0.0
27/04:00am 19.8 19.0 16.1 79 2.2 SE 15 20 8 11 1008.1 1006.5 0.0
27/03:30am 20.5 18.7 16.1 76 2.7 SE 20 30 11 16 1008.4 1006.8 0.0
27/03:00am 20.9 18.8 16.1 74 2.9 SE 22 28 12 15 1008.3 1006.7 0.0
27/02:30am 21.2 19.7 16.4 74 2.9 SSE 19 26 10 14 1008.7 1007.1 0.0
27/02:00am 21.3 19.7 16.5 74 2.9 SE 20 26 11 14 1008.9 1007.3 0.0
27/01:30am 20.6 19.0 16.6 78 2.4 SE 20 24 11 13 1009.2 1007.6 0.0
27/01:00am 20.6 19.2 16.6 78 2.5 SE 19 26 10 14 1009.5 1007.9 0.0
27/12:30am 20.4 18.5 16.6 79 2.3 SE 22 28 12 15 1009.4 1007.8 0.0
27/12:00am 20.4 18.9 16.8 80 2.2 SE 20 30 11 16 1009.6 1008.0 0.0
 
Date/Time
EDT
Temp
°C
App
Temp
°C
Dew
Point
Rel
Hum
%
Delta-T
°C
Wind Press
QNH
hPa
Press
MSL
hPa
Rain
since 9 am
mm
Dir
 
Spd
km/h
Gust
km/h
Spd
kts
Gust
kts
26/11:30pm 20.6 19.3 16.8 79 2.3 SE 19 24 10 13 1009.7 1008.1 0.0
26/11:00pm 21.1 19.9 17.1 78 2.5 SE 19 24 10 13 1010.0 1008.5 0.0
26/10:30pm 21.5 19.4 17.1 76 2.7 SSE 24 35 13 19 1009.5 1007.9 0.0
26/10:00pm 21.6 19.5 17.2 76 2.7 SSE 24 32 13 17 1009.3 1007.7 0.0
26/09:30pm 21.6 20.4 17.6 78 2.5 SE 20 30 11 16 1009.3 1007.7 0.0
26/09:00pm 22.1 20.2 17.7 76 2.8 SE 24 35 13 19 1009.3 1007.7 0.0
26/08:30pm 22.6 21.6 17.9 75 3.0 SSE 20 28 11 15 1009.2 1007.6 0.0
26/08:00pm 22.9 20.9 18.4 76 2.9 SE 26 37 14 20 1009.0 1007.4 0.0
26/07:30pm 23.1 21.1 18.4 75 3.0 SE 26 39 14 21 1008.7 1007.1 0.0
26/07:00pm 23.4 21.7 18.9 76 2.9 SE 26 35 14 19 1008.3 1006.7 0.0
26/06:30pm 23.7 21.1 18.6 73 3.3 SSE 30 39 16 21 1007.5 1005.9 0.0
26/06:00pm 26.2 23.0 18.6 63 4.9 SE 33 44 18 24 1006.9 1005.3 0.0
26/05:30pm 26.7 24.7 19.1 63 4.9 SSE 28 37 15 20 1007.5 1005.9 0.0
26/05:00pm 26.5 23.7 19.1 64 4.8 ESE 32 43 17 23 1006.8 1005.2 0.0
26/04:30pm 23.5 19.3 18.8 75 3.0 SE 39 57 21 31 1006.6 1004.9 0.0
26/04:16pm 27.3 23.8 17.8 56 6.1 ESE 33 59 18 32 1006.3 1004.6 0.0
26/04:00pm 30.2 27.0 16.2 42 8.8 ESE 28 44 15 24 1005.8 1004.2 0.0
26/03:30pm 33.2 30.1 17.4 39 10.2 SE 30 48 16 26 1005.0 1003.4 0.0
26/03:28pm 34.1 31.3 17.3 36 10.9 SE 28 48 15 26 1004.9 1003.3 0.0
26/03:00pm 36.0 31.8 15.7 30 13.0 SSE 32 44 17 24 1004.7 1003.1 0.0
26/02:30pm 35.2 33.2 15.0 30 12.7 SE 19 28 10 15 1005.0 1003.4 0.0
26/02:00pm 35.0 33.3 12.6 26 13.6 S 13 19 7 10 1005.1 1003.5 0.0
26/01:30pm 36.0 36.6 15.2 29 13.2 ENE 6 17 3 9 1005.2 1003.6 0.0
26/01:00pm 34.2 33.1 12.0 26 13.4 SE 9 20 5 11 1005.9 1004.3 0.0
26/12:30pm 34.2 34.3 15.6 32 11.8 S 9 15 5 8 1006.8 1005.2 0.0
26/12:00pm 32.9 32.6 15.4 35 11.0 SE 11 19 6 10 1007.4 1005.8 0.0
26/11:30am 33.1 33.6 16.5 37 10.6 E 9 20 5 11 1007.7 1006.1 0.0
26/11:00am 30.9 30.6 16.5 42 9.1 ESE 13 26 7 14 1007.8 1006.2 0.0
26/10:30am 31.1 30.2 18.1 46 8.4 SSE 20 26 11 14 1008.3 1006.7 0.0
26/10:00am 30.4 29.5 18.2 48 7.9 SE 20 30 11 16 1008.3 1006.7 0.0
26/09:30am 29.6 28.3 18.1 50 7.4 SE 22 30 12 16 1008.3 1006.7 0.0

Other Formats:

Comma delimited format used in spreadsheet applications
http://www.bom.gov.au/fwo/IDN60801/IDN60801.95740.axf

JavaScript Object Notation format (JSON) in row-major order
http://www.bom.gov.au/fwo/IDN60801/IDN60801.95740.json